Time;durP1;ratioP1;P1;durP2;ratioP2;P2;SDS_P1;SDS_P2;PMS_P1;PMS_P2;Temp;Humidity;BMP_temperature;BMP_pressure;BME280_temperature;BME280_humidity;BME280_pressure;Samples;Min_cycle;Max_cycle;Signal;HPM_P1;HPM_P2
2023/09/21 00:01:48;;;;;;;4.90;4.67;;;16.70;68.90;;;;;;6278788;28;20241;-82
2023/09/21 00:04:51;;;;;;;4.50;4.30;;;16.70;68.90;;;;;;6267035;28;20287;-82
2023/09/21 00:07:57;;;;;;;4.03;3.83;;;16.70;69.00;;;;;;6281023;28;20283;-82
2023/09/21 00:11:03;;;;;;;3.90;3.70;;;16.70;68.90;;;;;;6280476;28;20225;-81
2023/09/21 00:14:08;;;;;;;3.90;3.70;;;16.70;69.00;;;;;;6286972;28;20241;-81
2023/09/21 00:17:12;;;;;;;3.83;3.67;;;16.60;69.10;;;;;;6292423;28;20237;-82
2023/09/21 00:20:23;;;;;;;3.93;3.73;;;16.60;69.10;;;;;;6285170;28;20835;-82
2023/09/21 00:23:27;;;;;;;3.70;3.60;;;16.60;69.10;;;;;;6285226;28;20293;-80
2023/09/21 00:26:30;;;;;;;3.60;3.40;;;16.50;69.30;;;;;;6299696;28;20228;-81
2023/09/21 00:29:36;;;;;;;3.50;3.40;;;16.50;69.40;;;;;;6277846;28;20261;-81
2023/09/21 00:32:39;;;;;;;3.53;3.43;;;16.50;69.50;;;;;;6294753;28;20747;-81
2023/09/21 00:35:43;;;;;;;3.33;3.23;;;16.50;69.50;;;;;;6281120;28;20275;-83
2023/09/21 00:38:47;;;;;;;4.13;3.93;;;16.40;69.60;;;;;;6281705;28;20290;-82
2023/09/21 00:41:51;;;;;;;3.50;3.40;;;16.40;69.80;;;;;;6284815;28;20221;-82
2023/09/21 00:44:56;;;;;;;3.70;3.60;;;16.40;69.90;;;;;;6277967;28;20240;-81
2023/09/21 00:48:00;;;;;;;3.67;3.50;;;16.40;69.90;;;;;;6274205;28;20248;-81
2023/09/21 00:51:07;;;;;;;3.83;3.73;;;16.30;70.00;;;;;;6285347;28;20238;-81
2023/09/21 00:54:12;;;;;;;4.00;3.70;;;16.20;70.10;;;;;;6286030;28;20271;-80
2023/09/21 00:57:15;;;;;;;4.30;4.00;;;16.20;70.30;;;;;;6281260;28;20759;-82
2023/09/21 01:00:25;;;;;;;3.30;3.10;;;16.20;70.40;;;;;;6286295;28;20255;-83
2023/09/21 01:03:29;;;;;;;3.70;3.50;;;16.10;70.40;;;;;;6286199;28;20230;-83
2023/09/21 01:06:33;;;;;;;3.70;3.60;;;16.10;70.50;;;;;;6280384;28;20598;-82
2023/09/21 01:09:38;;;;;;;3.87;3.67;;;16.10;70.60;;;;;;6247711;28;20330;-81
2023/09/21 01:12:44;;;;;;;3.60;3.50;;;16.10;70.70;;;;;;6285656;28;20268;-82
2023/09/21 01:16:00;;;;;;;4.30;4.10;;;16.10;70.70;;;;;;6284911;28;20622;-80
2023/09/21 01:19:04;;;;;;;4.10;3.73;;;16.00;70.90;;;;;;6293397;28;20244;-83
2023/09/21 01:22:11;;;;;;;7.47;4.00;;;16.00;71.10;;;;;;6290519;28;20321;-81
2023/09/21 01:25:16;;;;;;;4.03;3.73;;;16.00;71.30;;;;;;6289192;28;20229;-82
2023/09/21 01:28:22;;;;;;;4.07;3.70;;;16.00;71.20;;;;;;6289568;28;20301;-80
2023/09/21 01:31:25;;;;;;;3.83;3.67;;;16.00;71.50;;;;;;6287411;28;20236;-82
2023/09/21 01:34:29;;;;;;;4.07;3.77;;;16.00;71.50;;;;;;6281371;28;20733;-83
2023/09/21 01:37:32;;;;;;;4.33;4.00;;;16.00;71.50;;;;;;6289156;28;20233;-83
2023/09/21 01:40:38;;;;;;;5.33;3.97;;;16.00;71.50;;;;;;6286262;28;20310;-81
2023/09/21 01:43:41;;;;;;;3.53;3.43;;;16.00;71.60;;;;;;6285292;28;20257;-81
2023/09/21 01:46:44;;;;;;;5.20;3.87;;;16.00;71.50;;;;;;6288666;28;20233;-83
2023/09/21 01:49:47;;;;;;;4.00;3.63;;;16.00;71.60;;;;;;6288698;28;20307;-81
2023/09/21 01:52:50;;;;;;;3.80;3.60;;;15.90;71.60;;;;;;6277580;28;20315;-82
2023/09/21 01:55:55;;;;;;;3.70;3.60;;;15.80;71.60;;;;;;6296924;28;20910;-82
2023/09/21 01:59:01;;;;;;;4.13;3.93;;;15.80;71.60;;;;;;6297570;28;20252;-82
2023/09/21 02:02:04;;;;;;;3.50;3.40;;;15.80;71.70;;;;;;6273610;28;20252;-82
2023/09/21 02:05:12;;;;;;;3.47;3.37;;;15.80;71.80;;;;;;6287977;28;20917;-81
2023/09/21 02:08:17;;;;;;;3.17;3.07;;;15.80;71.90;;;;;;6280485;28;20245;-82
2023/09/21 02:11:22;;;;;;;3.57;3.47;;;15.70;71.90;;;;;;6285723;28;20236;-81
2023/09/21 02:14:25;;;;;;;3.70;3.60;;;15.60;72.00;;;;;;6287093;28;20273;-82
2023/09/21 02:17:29;;;;;;;3.60;3.40;;;15.60;72.10;;;;;;6282041;28;20334;-82
2023/09/21 02:20:35;;;;;;;4.20;4.10;;;15.60;72.20;;;;;;6288678;28;20243;-80
2023/09/21 02:23:38;;;;;;;4.57;4.27;;;15.60;72.70;;;;;;6287889;28;20240;-81
2023/09/21 02:26:45;;;;;;;3.73;3.57;;;15.60;72.60;;;;;;6286158;28;20226;-80
2023/09/21 02:29:48;;;;;;;4.30;4.10;;;15.50;72.70;;;;;;6285564;28;20248;-81
2023/09/21 02:32:53;;;;;;;4.50;4.10;;;15.50;72.80;;;;;;6295193;28;20344;-82
2023/09/21 02:35:56;;;;;;;4.27;4.00;;;15.50;73.10;;;;;;6279878;28;20272;-82
2023/09/21 02:38:59;;;;;;;4.20;3.90;;;15.40;73.00;;;;;;6279182;28;20230;-83
2023/09/21 02:42:05;;;;;;;4.40;4.20;;;15.50;73.00;;;;;;6300914;28;20300;-82
2023/09/21 02:45:10;;;;;;;3.57;3.47;;;15.50;72.90;;;;;;6280407;28;20234;-82
2023/09/21 02:48:14;;;;;;;4.23;4.03;;;15.40;72.90;;;;;;6288031;28;20779;-83
2023/09/21 02:51:18;;;;;;;3.73;3.63;;;15.40;72.90;;;;;;6297021;28;20236;-82
2023/09/21 02:54:22;;;;;;;3.80;3.60;;;15.40;73.00;;;;;;6282127;28;20966;-82
2023/09/21 02:57:29;;;;;;;3.70;3.60;;;15.40;72.90;;;;;;6285523;28;20237;-82
2023/09/21 03:00:39;;;;;;;4.17;3.90;;;15.40;73.00;;;;;;6278894;28;20732;-82
2023/09/21 03:03:42;;;;;;;4.77;4.20;;;15.30;73.00;;;;;;6286959;28;20226;-82
2023/09/21 03:06:46;;;;;;;3.63;3.53;;;15.30;73.20;;;;;;6283740;28;20233;-81
2023/09/21 03:09:49;;;;;;;3.87;3.70;;;15.30;73.20;;;;;;6277664;28;20240;-82
2023/09/21 03:12:54;;;;;;;4.37;4.07;;;15.20;73.30;;;;;;6286440;28;20322;-81
2023/09/21 03:15:58;;;;;;;3.60;3.50;;;15.20;73.30;;;;;;6285631;28;20244;-81
2023/09/21 03:19:02;;;;;;;3.60;3.40;;;15.20;73.30;;;;;;6284024;28;20230;-82
2023/09/21 03:22:05;;;;;;;3.80;3.70;;;15.10;73.30;;;;;;6285598;28;20228;-82
2023/09/21 03:25:16;;;;;;;4.07;3.87;;;15.10;73.30;;;;;;6288028;28;20236;-82
2023/09/21 03:28:23;;;;;;;3.50;3.27;;;15.00;73.30;;;;;;6283778;28;20852;-82
2023/09/21 03:31:29;;;;;;;3.77;3.67;;;15.00;73.30;;;;;;6276316;28;20898;-81
2023/09/21 03:34:32;;;;;;;3.47;3.37;;;15.00;73.40;;;;;;6268241;28;20355;-81
2023/09/21 03:37:35;;;;;;;3.70;3.60;;;15.00;73.50;;;;;;6276536;28;20282;-81
2023/09/21 03:40:38;;;;;;;4.47;4.37;;;15.00;73.50;;;;;;6281651;28;20241;-84
2023/09/21 03:43:44;;;;;;;3.97;3.87;;;14.90;73.50;;;;;;6284882;28;20229;-82
2023/09/21 03:46:48;;;;;;;4.03;3.93;;;14.90;73.50;;;;;;6289966;28;20237;-81
2023/09/21 03:49:51;;;;;;;3.80;3.70;;;14.90;73.60;;;;;;6269947;28;20522;-83
2023/09/21 03:52:54;;;;;;;3.83;3.67;;;14.90;73.50;;;;;;6280412;28;20233;-81
2023/09/21 03:55:57;;;;;;;3.67;3.40;;;14.90;73.50;;;;;;6279646;28;20878;-83
2023/09/21 03:59:06;;;;;;;3.50;3.40;;;14.80;73.50;;;;;;6283730;28;20372;-81
2023/09/21 04:02:09;;;;;;;3.60;3.40;;;14.80;73.60;;;;;;6279694;28;20862;-83
2023/09/21 04:05:20;;;;;;;3.77;3.67;;;14.80;73.70;;;;;;6276552;28;20346;-82
2023/09/21 04:08:23;;;;;;;3.73;3.63;;;14.80;73.90;;;;;;6280886;28;20245;-82
2023/09/21 04:11:28;;;;;;;4.10;4.00;;;14.80;74.00;;;;;;6280321;28;20279;-82
2023/09/21 04:14:33;;;;;;;5.13;4.83;;;14.80;74.10;;;;;;6255135;28;20230;-82
2023/09/21 04:17:36;;;;;;;3.67;3.57;;;14.80;74.20;;;;;;6258670;28;20920;-81
2023/09/21 04:20:40;;;;;;;4.00;3.90;;;14.80;74.10;;;;;;6259297;28;20237;-81
2023/09/21 04:23:44;;;;;;;4.00;3.90;;;14.80;74.10;;;;;;6250633;28;20254;-81
2023/09/21 04:26:48;;;;;;;4.53;4.13;;;14.80;74.00;;;;;;6246563;28;20288;-81
2023/09/21 04:29:53;;;;;;;3.77;3.67;;;14.80;74.00;;;;;;6258180;28;20383;-81
2023/09/21 04:32:57;;;;;;;4.07;3.97;;;14.80;73.90;;;;;;6291885;28;20233;-80
2023/09/21 04:36:01;;;;;;;3.60;3.50;;;14.80;74.00;;;;;;6277956;28;20237;-83
2023/09/21 04:39:05;;;;;;;4.07;3.87;;;14.80;73.90;;;;;;6281743;28;20896;-83
2023/09/21 04:42:12;;;;;;;4.00;3.80;;;14.80;73.90;;;;;;6286661;28;20237;-82
2023/09/21 04:45:18;;;;;;;4.43;4.23;;;14.70;73.90;;;;;;6278123;28;20233;-81
2023/09/21 04:48:22;;;;;;;4.93;4.53;;;14.70;73.90;;;;;;6273317;28;20237;-80
2023/09/21 04:51:25;;;;;;;4.60;4.30;;;14.70;74.00;;;;;;6282723;28;20237;-79
2023/09/21 04:54:31;;;;;;;4.27;4.00;;;14.70;74.00;;;;;;6280201;28;20244;-80
2023/09/21 04:57:38;;;;;;;5.17;4.90;;;14.70;74.00;;;;;;6280650;28;20234;-80
2023/09/21 05:00:42;;;;;;;4.87;4.57;;;14.70;74.10;;;;;;6279500;28;20297;-81
2023/09/21 05:03:45;;;;;;;4.60;4.40;;;14.70;74.10;;;;;;6285428;28;20237;-83
2023/09/21 05:06:49;;;;;;;5.00;4.80;;;14.70;74.10;;;;;;6273483;28;20316;-80
2023/09/21 05:09:52;;;;;;;7.23;4.30;;;14.70;74.10;;;;;;6259366;28;20230;-81
2023/09/21 05:12:55;;;;;;;4.60;4.30;;;14.70;74.30;;;;;;6256949;28;20714;-80
2023/09/21 05:16:00;;;;;;;4.60;4.30;;;14.70;74.40;;;;;;6242439;28;20737;-81
2023/09/21 05:19:04;;;;;;;5.00;4.60;;;14.70;74.40;;;;;;6247610;28;20234;-82
2023/09/21 05:22:08;;;;;;;4.40;4.10;;;14.70;74.30;;;;;;6258688;28;20307;-80
2023/09/21 05:25:12;;;;;;;5.20;4.87;;;14.80;74.20;;;;;;6259651;28;20243;-83
2023/09/21 05:28:16;;;;;;;5.13;4.87;;;14.80;74.20;;;;;;6258331;28;20642;-81
2023/09/21 05:31:20;;;;;;;4.60;4.40;;;14.80;74.20;;;;;;6247087;28;21636;-80
2023/09/21 05:34:25;;;;;;;8.57;5.50;;;14.80;74.10;;;;;;6265559;28;20247;-83
2023/09/21 05:37:29;;;;;;;4.70;4.47;;;14.90;74.00;;;;;;6276770;28;20241;-78
2023/09/21 05:40:33;;;;;;;10.00;5.50;;;14.90;73.90;;;;;;6287727;28;20306;-77
2023/09/21 05:43:36;;;;;;;6.23;5.73;;;14.90;73.90;;;;;;6286058;28;20233;-76
2023/09/21 05:46:41;;;;;;;6.40;5.67;;;15.00;73.80;;;;;;6272959;28;20383;-80
2023/09/21 05:49:44;;;;;;;11.67;5.30;;;15.00;73.80;;;;;;6286309;28;20268;-80
2023/09/21 05:52:47;;;;;;;9.37;5.17;;;15.00;73.70;;;;;;6282266;28;20371;-81
2023/09/21 05:55:51;;;;;;;6.73;5.03;;;15.10;73.60;;;;;;6285720;28;20956;-80
2023/09/21 05:58:59;;;;;;;5.73;5.33;;;15.20;73.50;;;;;;6284234;28;20379;-81
2023/09/21 06:02:05;;;;;;;4.83;4.67;;;15.30;73.50;;;;;;6279938;28;20242;-82
2023/09/21 06:05:10;;;;;;;5.33;4.93;;;15.30;73.40;;;;;;6283336;28;20244;-76
2023/09/21 06:08:14;;;;;;;4.53;4.33;;;15.30;73.30;;;;;;6285570;28;20336;-77
2023/09/21 06:11:17;;;;;;;6.10;5.00;;;15.40;73.20;;;;;;6283509;28;20283;-77
2023/09/21 06:14:22;;;;;;;5.23;4.93;;;15.40;73.20;;;;;;6282714;28;20257;-78
2023/09/21 06:17:28;;;;;;;5.63;5.07;;;15.40;73.20;;;;;;6282282;28;20245;-79
2023/09/21 06:20:31;;;;;;;7.83;4.80;;;15.40;73.10;;;;;;6287467;28;20305;-76
2023/09/21 06:23:34;;;;;;;5.33;5.03;;;15.40;73.20;;;;;;6272331;28;20232;-79
2023/09/21 06:26:38;;;;;;;5.97;5.47;;;15.40;73.20;;;;;;6286064;28;20249;-82
2023/09/21 06:29:42;;;;;;;5.90;5.40;;;15.40;73.30;;;;;;6285356;28;20238;-81
2023/09/21 06:32:47;;;;;;;8.90;6.00;;;15.40;73.40;;;;;;6271696;28;20238;-82
2023/09/21 06:35:51;;;;;;;5.97;5.53;;;15.50;73.20;;;;;;6283427;28;20243;-80
2023/09/21 06:38:54;;;;;;;5.53;5.17;;;15.50;73.00;;;;;;6280544;28;20236;-81
2023/09/21 06:41:57;;;;;;;5.90;5.40;;;15.60;73.00;;;;;;6282022;28;21003;-80
2023/09/21 06:45:00;;;;;;;9.40;5.70;;;15.70;73.00;;;;;;6287249;28;20237;-81
2023/09/21 06:48:05;;;;;;;7.30;5.47;;;15.80;72.70;;;;;;6285776;28;20690;-81
2023/09/21 06:51:09;;;;;;;7.07;4.63;;;15.90;72.50;;;;;;6282099;28;20233;-81
2023/09/21 06:54:13;;;;;;;5.60;5.07;;;16.00;72.10;;;;;;6281555;28;20246;-80
2023/09/21 06:57:31;;;;;;;5.40;5.10;;;16.20;71.80;;;;;;6281992;28;20321;-79
2023/09/21 07:00:36;;;;;;;8.60;4.93;;;16.50;71.50;;;;;;6285290;28;20244;-80
2023/09/21 07:03:41;;;;;;;5.93;5.07;;;16.70;70.80;;;;;;6288475;28;20234;-80
2023/09/21 07:06:46;;;;;;;6.60;4.67;;;16.90;70.30;;;;;;6262268;28;20232;-77
2023/09/21 07:09:49;;;;;;;4.70;4.50;;;17.00;69.90;;;;;;6303482;28;20236;-78
2023/09/21 07:12:53;;;;;;;5.97;4.50;;;17.50;69.00;;;;;;6283357;28;21717;-79
2023/09/21 07:15:58;;;;;;;6.23;5.30;;;17.80;68.10;;;;;;6280945;28;20240;-81
2023/09/21 07:19:03;;;;;;;5.43;4.93;;;18.00;67.30;;;;;;6286191;28;20268;-79
2023/09/21 07:22:08;;;;;;;4.73;4.40;;;18.20;67.40;;;;;;6283399;28;20237;-79
2023/09/21 07:25:13;;;;;;;6.13;4.93;;;18.40;66.40;;;;;;6273945;28;20394;-80
2023/09/21 07:28:17;;;;;;;5.33;4.70;;;18.60;66.40;;;;;;6284969;28;20299;-79
2023/09/21 07:31:20;;;;;;;8.30;4.70;;;18.70;66.50;;;;;;6281518;28;20840;-79
2023/09/21 07:34:24;;;;;;;5.23;4.80;;;18.70;66.00;;;;;;6286213;28;20279;-79
2023/09/21 07:37:29;;;;;;;4.80;4.50;;;18.80;66.20;;;;;;6275048;28;20343;-79
2023/09/21 07:40:32;;;;;;;4.80;4.50;;;18.80;66.00;;;;;;6273222;28;20233;-79
2023/09/21 07:43:36;;;;;;;5.83;3.97;;;18.90;66.10;;;;;;6270579;28;20760;-81
2023/09/21 07:46:39;;;;;;;5.80;4.90;;;19.00;65.90;;;;;;6285647;28;20248;-79
2023/09/21 07:49:44;;;;;;;8.93;4.77;;;19.10;65.70;;;;;;6271627;28;20399;-80
2023/09/21 07:52:47;;;;;;;5.90;4.07;;;19.20;65.80;;;;;;6284945;28;20225;-79
2023/09/21 07:55:59;;;;;;;6.67;4.10;;;19.20;65.30;;;;;;6284108;28;20248;-81
2023/09/21 07:59:02;;;;;;;4.97;4.20;;;19.40;65.20;;;;;;6283988;28;20233;-79
2023/09/21 08:02:05;;;;;;;5.97;4.57;;;19.40;65.20;;;;;;6285161;28;20244;-78
2023/09/21 08:05:10;;;;;;;4.33;3.90;;;19.50;64.80;;;;;;6292207;28;20233;-79
2023/09/21 08:08:15;;;;;;;6.17;4.20;;;19.60;64.60;;;;;;6285491;28;20237;-79
2023/09/21 08:11:19;;;;;;;4.07;3.73;;;19.70;64.60;;;;;;6277685;28;20237;-78
2023/09/21 08:14:22;;;;;;;3.90;3.60;;;20.00;64.00;;;;;;6281299;28;20343;-79
2023/09/21 08:17:25;;;;;;;5.83;3.80;;;20.00;63.80;;;;;;6275968;28;20298;-77
2023/09/21 08:20:29;;;;;;;3.80;3.50;;;20.10;63.80;;;;;;6283995;28;20233;-78
2023/09/21 08:23:33;;;;;;;4.73;3.90;;;20.30;63.70;;;;;;6281602;28;20244;-79
2023/09/21 08:26:37;;;;;;;10.23;4.10;;;20.40;63.30;;;;;;6289193;28;20831;-79
2023/09/21 08:29:41;;;;;;;3.73;3.57;;;20.50;63.50;;;;;;6293421;28;20232;-79
2023/09/21 08:32:44;;;;;;;3.77;3.60;;;20.60;63.10;;;;;;6284724;28;20237;-80
2023/09/21 08:35:49;;;;;;;5.70;3.40;;;20.60;62.80;;;;;;6290379;28;20307;-79
2023/09/21 08:38:53;;;;;;;5.60;3.50;;;20.80;63.00;;;;;;6284154;28;20233;-78
2023/09/21 08:41:57;;;;;;;5.20;3.33;;;20.90;62.90;;;;;;6279724;28;20237;-78
2023/09/21 08:45:02;;;;;;;6.33;3.83;;;21.00;62.70;;;;;;6288464;28;20228;-79
2023/09/21 08:48:06;;;;;;;11.20;3.87;;;21.10;63.20;;;;;;6283018;28;20240;-78
2023/09/21 08:51:15;;;;;;;4.23;3.70;;;21.30;62.20;;;;;;6287122;28;20234;-79
2023/09/21 08:54:19;;;;;;;7.13;3.70;;;21.50;61.30;;;;;;6285564;28;20434;-79
2023/09/21 08:57:23;;;;;;;3.60;3.40;;;21.60;61.00;;;;;;6280186;28;20305;-77
2023/09/21 09:00:28;;;;;;;4.33;3.80;;;21.70;60.80;;;;;;6283905;28;20279;-76
2023/09/21 09:03:32;;;;;;;3.67;3.40;;;21.90;60.70;;;;;;6304596;28;20724;-78
2023/09/21 09:06:38;;;;;;;6.13;4.00;;;22.00;60.30;;;;;;6284671;28;20229;-79
2023/09/21 09:09:41;;;;;;;3.60;3.50;;;22.20;60.00;;;;;;6268222;28;20237;-79
2023/09/21 09:12:44;;;;;;;6.23;3.27;;;22.30;59.70;;;;;;6292297;28;20313;-81
2023/09/21 09:15:48;;;;;;;3.47;3.33;;;22.50;59.60;;;;;;6282838;28;20244;-79
2023/09/21 09:18:52;;;;;;;3.93;3.37;;;22.70;58.90;;;;;;6286978;28;20350;-78
2023/09/21 09:21:57;;;;;;;4.30;4.00;;;22.80;59.30;;;;;;6299132;28;20230;-78
2023/09/21 09:25:05;;;;;;;3.57;3.30;;;22.80;58.60;;;;;;6281440;28;20640;-76
2023/09/21 09:28:09;;;;;;;6.43;3.80;;;22.90;58.60;;;;;;6289607;28;20234;-77
2023/09/21 09:31:12;;;;;;;10.43;3.60;;;23.10;58.70;;;;;;6276240;28;20775;-78
2023/09/21 09:34:17;;;;;;;3.70;3.40;;;23.30;58.30;;;;;;6285454;28;20225;-75
2023/09/21 09:37:22;;;;;;;6.53;3.70;;;23.30;58.20;;;;;;6278372;28;20296;-78
2023/09/21 09:40:28;;;;;;;3.90;3.70;;;23.40;58.50;;;;;;6280249;28;20662;-80
2023/09/21 09:43:34;;;;;;;4.00;3.60;;;23.50;57.70;;;;;;6287387;28;20229;-78
2023/09/21 09:46:42;;;;;;;3.37;3.13;;;23.60;57.70;;;;;;6280349;28;20234;-80
2023/09/21 09:49:49;;;;;;;3.20;2.80;;;23.90;57.00;;;;;;6279038;28;21165;-77
2023/09/21 09:53:03;;;;;;;3.63;3.33;;;24.00;56.50;;;;;;6281853;28;20233;-79
2023/09/21 09:56:10;;;;;;;2.93;2.73;;;24.20;56.40;;;;;;6283599;28;20671;-80
2023/09/21 09:59:13;;;;;;;7.80;3.60;;;24.30;55.40;;;;;;6289555;28;20309;-79
2023/09/21 10:02:18;;;;;;;4.93;3.83;;;24.50;55.30;;;;;;6281622;28;20236;-79
2023/09/21 10:05:23;;;;;;;4.80;3.10;;;24.60;55.50;;;;;;6284643;28;20236;-77
2023/09/21 10:08:28;;;;;;;4.13;3.43;;;24.60;55.20;;;;;;6276588;28;20256;-80
2023/09/21 10:11:31;;;;;;;6.33;3.27;;;24.70;55.30;;;;;;6286090;28;20703;-80
2023/09/21 10:14:36;;;;;;;3.20;3.00;;;24.90;55.30;;;;;;6291892;28;20237;-79
2023/09/21 10:17:42;;;;;;;3.77;3.43;;;25.00;54.50;;;;;;6286830;28;20243;-76
2023/09/21 10:20:55;;;;;;;3.80;3.13;;;25.20;54.60;;;;;;6285842;28;20230;-80
2023/09/21 10:24:06;;;;;;;2.93;2.77;;;25.30;54.10;;;;;;6242476;28;20257;-78
2023/09/21 10:27:12;;;;;;;3.13;2.93;;;25.50;53.30;;;;;;6253333;28;20282;-80
2023/09/21 10:30:18;;;;;;;2.57;2.50;;;25.60;52.60;;;;;;6255608;28;20234;-78
2023/09/21 10:33:25;;;;;;;2.80;2.60;;;25.80;53.00;;;;;;6260083;28;20235;-78
2023/09/21 10:36:29;;;;;;;2.90;2.80;;;25.80;53.00;;;;;;6259901;28;20232;-78
2023/09/21 10:39:34;;;;;;;2.77;2.57;;;26.10;51.70;;;;;;6268498;28;20246;-78
2023/09/21 10:42:37;;;;;;;2.83;2.73;;;26.10;51.60;;;;;;6261451;28;20929;-78
2023/09/21 10:45:55;;;;;;;3.13;3.03;;;26.10;50.60;;;;;;6258746;28;20234;-77
2023/09/21 10:49:14;;;;;;;3.10;2.90;;;26.10;50.60;;;;;;6257308;28;20332;-79
2023/09/21 10:52:18;;;;;;;4.27;2.40;;;26.20;50.40;;;;;;6254098;28;20375;-79
2023/09/21 10:55:22;;;;;;;2.80;2.63;;;26.40;51.00;;;;;;6263615;28;20252;-77
2023/09/21 10:58:26;;;;;;;2.70;2.60;;;26.40;50.50;;;;;;6260850;28;20318;-80
2023/09/21 11:01:32;;;;;;;3.27;3.07;;;26.40;50.80;;;;;;6257846;28;20656;-78
2023/09/21 11:04:35;;;;;;;3.23;3.03;;;26.40;51.40;;;;;;6257006;28;20233;-79
2023/09/21 11:07:39;;;;;;;3.27;2.97;;;26.50;51.80;;;;;;6253894;28;20245;-78
2023/09/21 11:10:43;;;;;;;2.93;2.87;;;26.60;51.50;;;;;;6254822;28;20284;-78
2023/09/21 11:13:50;;;;;;;3.70;3.13;;;26.60;51.50;;;;;;6247509;28;20313;-78
2023/09/21 11:16:53;;;;;;;3.27;2.90;;;26.60;50.70;;;;;;6249787;28;20238;-80
2023/09/21 11:19:57;;;;;;;2.90;2.60;;;26.80;50.70;;;;;;6252916;28;20237;-80
2023/09/21 11:23:03;;;;;;;4.57;3.20;;;26.90;50.50;;;;;;6278823;28;20233;-81
2023/09/21 11:26:11;;;;;;;3.10;2.90;;;26.80;50.50;;;;;;6272091;28;20709;-81
2023/09/21 11:29:16;;;;;;;6.87;3.87;;;26.80;50.80;;;;;;6271808;28;20237;-81
2023/09/21 11:32:19;;;;;;;3.70;3.37;;;26.70;50.90;;;;;;6244405;28;22143;-77
2023/09/21 11:35:23;;;;;;;3.40;2.43;;;26.80;50.20;;;;;;6281714;28;20225;-81
2023/09/21 11:38:29;;;;;;;4.10;2.73;;;26.90;50.50;;;;;;6275217;28;20626;-80
2023/09/21 11:41:33;;;;;;;2.67;2.63;;;26.90;50.00;;;;;;6282306;28;20237;-80
2023/09/21 11:44:37;;;;;;;3.10;2.90;;;26.80;49.80;;;;;;6282275;28;20244;-78
2023/09/21 11:47:40;;;;;;;4.73;2.80;;;26.90;49.50;;;;;;6286361;28;20272;-78
2023/09/21 11:50:45;;;;;;;2.60;2.50;;;27.10;49.50;;;;;;6280637;28;20230;-77
2023/09/21 11:53:48;;;;;;;2.97;2.77;;;27.20;48.40;;;;;;6277291;28;20732;-80
2023/09/21 11:56:52;;;;;;;2.67;2.47;;;27.20;49.40;;;;;;6272164;28;20711;-79
2023/09/21 11:59:56;;;;;;;3.47;3.00;;;27.40;49.60;;;;;;6282642;28;20249;-79
2023/09/21 12:02:59;;;;;;;3.03;2.50;;;27.50;48.50;;;;;;6282626;28;20248;-78
2023/09/21 12:06:05;;;;;;;3.10;2.90;;;27.50;47.50;;;;;;6281070;28;20233;-78
2023/09/21 12:09:12;;;;;;;3.23;3.03;;;27.50;48.50;;;;;;6282144;28;20242;-81
2023/09/21 12:12:20;;;;;;;3.07;2.87;;;27.50;47.20;;;;;;6274685;28;20234;-79
2023/09/21 12:15:23;;;;;;;6.13;2.73;;;27.60;47.80;;;;;;6281870;28;20237;-78
2023/09/21 12:18:28;;;;;;;4.53;3.10;;;27.70;47.90;;;;;;6279062;28;20322;-80
2023/09/21 12:21:32;;;;;;;2.97;2.87;;;27.60;48.00;;;;;;6278579;28;20234;-79
2023/09/21 12:24:36;;;;;;;2.63;2.50;;;27.70;47.60;;;;;;6283199;28;20316;-79
2023/09/21 12:27:42;;;;;;;3.23;3.03;;;27.80;47.20;;;;;;6278702;28;20254;-79
2023/09/21 12:30:48;;;;;;;3.97;2.43;;;27.80;47.40;;;;;;6279539;28;20248;-80
2023/09/21 12:33:52;;;;;;;2.80;2.60;;;28.00;47.10;;;;;;6275796;28;20245;-81
2023/09/21 12:36:56;;;;;;;2.90;2.70;;;28.00;47.30;;;;;;6274118;28;20251;-80
2023/09/21 12:39:59;;;;;;;2.50;2.30;;;28.10;47.40;;;;;;6280492;28;20705;-80
2023/09/21 12:43:05;;;;;;;4.43;2.90;;;28.20;47.00;;;;;;6280609;28;20239;-80
2023/09/21 12:46:09;;;;;;;2.97;2.67;;;28.30;46.10;;;;;;6275942;28;20724;-80
2023/09/21 12:49:13;;;;;;;2.93;2.10;;;28.20;46.00;;;;;;6278341;28;20710;-80
2023/09/21 12:52:17;;;;;;;2.30;2.20;;;28.20;46.20;;;;;;6286085;28;20248;-80
2023/09/21 12:55:20;;;;;;;2.88;2.75;;;28.30;45.90;;;;;;6281286;28;20233;-79
2023/09/21 12:58:25;;;;;;;2.35;2.35;;;28.30;46.00;;;;;;6278977;28;20275;-77
2023/09/21 13:01:29;;;;;;;4.03;3.03;;;28.40;45.10;;;;;;6282877;28;20942;-80
2023/09/21 13:04:32;;;;;;;3.50;2.30;;;28.30;45.50;;;;;;6285850;28;20756;-79
2023/09/21 13:07:36;;;;;;;2.92;2.60;;;28.30;45.80;;;;;;6282040;28;20241;-78
2023/09/21 13:10:40;;;;;;;2.97;2.78;;;28.30;46.60;;;;;;6274526;28;20233;-77
2023/09/21 13:13:46;;;;;;;3.03;2.78;;;28.50;46.50;;;;;;6279214;28;20256;-80
2023/09/21 13:16:49;;;;;;;2.70;2.60;;;28.50;46.20;;;;;;6281860;28;20230;-79
2023/09/21 13:19:52;;;;;;;4.90;2.55;;;28.50;45.90;;;;;;6283004;28;20233;-79
2023/09/21 13:22:56;;;;;;;2.47;2.28;;;28.50;44.60;;;;;;6271479;28;20669;-80
2023/09/21 13:26:00;;;;;;;2.78;2.45;;;28.40;44.80;;;;;;6303610;28;20943;-80
2023/09/21 13:29:04;;;;;;;2.50;2.40;;;28.50;45.30;;;;;;6287050;28;20259;-79
2023/09/21 13:32:08;;;;;;;2.30;2.25;;;28.60;44.80;;;;;;6287465;28;20323;-80
2023/09/21 13:35:12;;;;;;;3.40;2.75;;;28.50;44.90;;;;;;6275091;28;20233;-77
2023/09/21 13:38:16;;;;;;;2.83;2.63;;;28.50;45.10;;;;;;6247211;28;20763;-77
2023/09/21 13:41:19;;;;;;;2.97;2.75;;;28.50;45.30;;;;;;6288164;28;20276;-74
2023/09/21 13:44:23;;;;;;;2.70;2.60;;;28.50;44.70;;;;;;6289504;28;20236;-79
2023/09/21 13:47:26;;;;;;;2.67;2.58;;;28.60;44.60;;;;;;6279465;28;20245;-78
2023/09/21 13:50:30;;;;;;;2.72;2.58;;;28.60;44.90;;;;;;6285092;28;20229;-77
2023/09/21 13:53:34;;;;;;;2.67;2.58;;;28.60;44.70;;;;;;6276528;28;20871;-78
2023/09/21 13:56:39;;;;;;;2.88;2.67;;;28.60;44.60;;;;;;6288065;28;20879;-77
2023/09/21 13:59:44;;;;;;;2.42;2.20;;;28.60;44.70;;;;;;6285503;28;20791;-75
2023/09/21 14:02:48;;;;;;;2.58;2.33;;;28.70;45.20;;;;;;6280586;28;20379;-76
2023/09/21 14:05:52;;;;;;;2.47;2.10;;;28.70;44.80;;;;;;6289056;28;20235;-76
2023/09/21 14:08:55;;;;;;;2.10;2.03;;;28.70;44.80;;;;;;6284159;28;20312;-76
2023/09/21 14:11:58;;;;;;;7.30;3.55;;;28.70;45.10;;;;;;6280881;28;21216;-76
2023/09/21 14:15:05;;;;;;;2.03;2.03;;;28.60;45.00;;;;;;6281879;28;20233;-76
2023/09/21 14:18:08;;;;;;;2.70;2.60;;;28.60;44.90;;;;;;6286066;28;20272;-76
2023/09/21 14:21:13;;;;;;;2.22;2.13;;;28.60;45.40;;;;;;6287199;28;20324;-77
2023/09/21 14:24:16;;;;;;;3.35;2.63;;;28.60;45.60;;;;;;6287623;28;20229;-78
2023/09/21 14:27:20;;;;;;;2.53;2.42;;;28.50;45.30;;;;;;6284667;28;20257;-76
2023/09/21 14:30:25;;;;;;;3.45;3.15;;;28.50;45.00;;;;;;6286342;28;20813;-77
2023/09/21 14:33:28;;;;;;;4.57;2.40;;;28.50;45.10;;;;;;6278616;28;20233;-76
2023/09/21 14:36:31;;;;;;;2.72;2.53;;;28.40;45.20;;;;;;6281828;28;20249;-76
2023/09/21 14:39:34;;;;;;;2.50;2.40;;;28.40;45.00;;;;;;6284288;28;20280;-80
2023/09/21 14:42:39;;;;;;;3.83;2.35;;;28.50;44.80;;;;;;6289944;28;20378;-80
2023/09/21 14:45:44;;;;;;;2.10;2.05;;;28.30;45.40;;;;;;6292480;28;20332;-79
2023/09/21 14:48:47;;;;;;;4.18;2.92;;;28.30;45.70;;;;;;6285207;28;20270;-80
2023/09/21 14:51:50;;;;;;;2.45;2.17;;;28.20;45.80;;;;;;6289594;28;20313;-82
2023/09/21 14:54:55;;;;;;;2.58;2.47;;;28.10;46.40;;;;;;6281040;28;20363;-81
2023/09/21 14:58:02;;;;;;;2.80;2.70;;;28.10;45.50;;;;;;6282634;28;20237;-80
2023/09/21 15:01:07;;;;;;;3.22;2.70;;;28.10;45.70;;;;;;6281779;28;20245;-81
2023/09/21 15:04:11;;;;;;;2.50;2.50;;;28.10;46.50;;;;;;6290212;28;20276;-80
2023/09/21 15:07:15;;;;;;;2.70;2.50;;;28.10;46.20;;;;;;6286317;28;20241;-80
2023/09/21 15:10:18;;;;;;;2.33;2.33;;;28.10;45.80;;;;;;6276590;28;20240;-81
2023/09/21 15:13:22;;;;;;;2.25;2.15;;;28.00;46.70;;;;;;6281351;28;20344;-79
2023/09/21 15:16:27;;;;;;;6.20;2.80;;;27.90;47.10;;;;;;6285889;28;20294;-80
2023/09/21 15:19:30;;;;;;;6.07;3.60;;;27.70;47.30;;;;;;6288687;28;20978;-81
2023/09/21 15:22:34;;;;;;;2.83;2.70;;;27.50;47.90;;;;;;6293236;28;20625;-82
2023/09/21 15:25:37;;;;;;;3.30;3.00;;;27.50;48.40;;;;;;6284960;28;20233;-79
2023/09/21 15:28:40;;;;;;;3.40;3.10;;;27.30;48.50;;;;;;6282554;28;20359;-79
2023/09/21 15:31:45;;;;;;;4.47;3.33;;;27.20;48.90;;;;;;6281625;28;21856;-79
2023/09/21 15:34:48;;;;;;;3.53;3.33;;;27.00;48.20;;;;;;6287964;28;20226;-81
2023/09/21 15:37:54;;;;;;;4.70;3.17;;;26.80;49.00;;;;;;6283095;28;20615;-81
2023/09/21 15:40:58;;;;;;;3.30;3.00;;;26.70;48.80;;;;;;6282205;28;20272;-80
2023/09/21 15:44:01;;;;;;;2.97;2.77;;;26.60;49.40;;;;;;6276615;28;20314;-81
2023/09/21 15:47:06;;;;;;;5.80;3.07;;;26.50;49.60;;;;;;6279328;28;20290;-80
2023/09/21 15:50:11;;;;;;;4.07;3.67;;;26.40;49.60;;;;;;6283097;28;20245;-80
2023/09/21 15:53:14;;;;;;;4.07;3.87;;;26.20;49.80;;;;;;6282902;28;20794;-78
2023/09/21 15:56:17;;;;;;;3.50;3.30;;;26.10;50.20;;;;;;6275697;28;20926;-79
2023/09/21 15:59:20;;;;;;;3.30;3.20;;;26.00;50.50;;;;;;6281508;28;20244;-79